createdAt,value
2022-09-30T00:00:28.146Z,8.02
2022-09-30T00:04:29.791Z,15.38
2022-09-30T00:08:31.455Z,7.80
2022-09-30T00:12:40.976Z,11.15
2022-09-30T00:16:50.632Z,10.88
2022-09-30T00:25:00.066Z,6.72
2022-09-30T00:29:02.474Z,8.40
2022-09-30T00:33:04.150Z,9.27
2022-09-30T00:37:05.990Z,5.60
2022-09-30T00:41:07.601Z,9.93
2022-09-30T00:45:11.406Z,10.65
2022-09-30T00:49:22.209Z,14.35
2022-09-30T00:53:34.326Z,9.02
2022-09-30T00:57:37.157Z,8.63
2022-09-30T01:01:40.772Z,9.70
2022-09-30T01:05:42.733Z,12.23
2022-09-30T01:09:45.083Z,7.87
2022-09-30T01:13:50.521Z,5.93
2022-09-30T01:18:07.166Z,9.38
2022-09-30T01:22:17.742Z,7.60
2022-09-30T01:26:25.174Z,10.05
2022-09-30T01:30:57.678Z,9.82
2022-09-30T01:35:04.840Z,8.38
2022-09-30T01:39:48.744Z,6.85
2022-09-30T01:44:08.321Z,9.10
2022-09-30T01:53:06.423Z,9.38
2022-09-30T01:57:21.459Z,7.47
2022-09-30T02:01:53.046Z,5.68
2022-09-30T02:06:02.132Z,8.90
2022-09-30T02:10:15.885Z,10.23
2022-09-30T02:14:23.890Z,9.40
2022-09-30T02:18:40.227Z,8.52
2022-09-30T02:22:51.822Z,10.02
2022-09-30T02:26:58.282Z,8.98
2022-09-30T02:31:03.708Z,9.73
2022-09-30T02:35:11.619Z,7.20
2022-09-30T02:39:40.825Z,8.82
2022-09-30T02:43:42.795Z,9.77
2022-09-30T02:47:55.906Z,8.82
2022-09-30T02:52:28.827Z,12.27
2022-09-30T02:56:48.530Z,9.98
2022-09-30T03:00:50.595Z,10.75
2022-09-30T03:04:52.281Z,10.50
2022-09-30T03:08:54.288Z,10.15
2022-09-30T03:12:55.882Z,8.73
2022-09-30T03:17:25.563Z,7.72
2022-09-30T03:21:44.353Z,7.22
2022-09-30T03:25:48.887Z,8.75
2022-09-30T03:30:07.786Z,8.60
2022-09-30T03:34:17.957Z,9.07
2022-09-30T03:38:46.635Z,9.77
2022-09-30T03:42:57.251Z,9.35
2022-09-30T03:47:07.915Z,8.68
2022-09-30T03:51:09.851Z,6.97
2022-09-30T03:55:11.751Z,9.13
2022-09-30T03:59:24.113Z,10.15
2022-09-30T04:03:27.705Z,7.68
2022-09-30T04:07:29.363Z,6.75
2022-09-30T04:11:31.115Z,9.77
2022-09-30T04:15:32.818Z,7.95
2022-09-30T04:19:38.126Z,9.95
2022-09-30T04:23:41.380Z,9.68
2022-09-30T04:27:43.015Z,7.55
2022-09-30T04:31:44.734Z,13.02
2022-09-30T04:35:46.465Z,6.85
2022-09-30T04:39:48.094Z,7.37
2022-09-30T04:43:49.705Z,9.00
2022-09-30T04:47:51.325Z,10.38
2022-09-30T04:51:52.986Z,19.15
2022-09-30T04:56:02.055Z,28.40
2022-09-30T05:00:05.328Z,20.65
2022-09-30T05:04:08.097Z,22.83
2022-09-30T05:08:09.769Z,22.20
2022-09-30T05:12:11.406Z,17.75
2022-09-30T05:16:14.658Z,23.65
2022-09-30T05:20:20.832Z,18.98
2022-09-30T05:24:22.875Z,20.00
2022-09-30T05:28:25.790Z,16.02
2022-09-30T05:32:27.410Z,11.15
2022-09-30T05:36:29.039Z,9.73
2022-09-30T05:40:31.435Z,8.13
2022-09-30T05:44:33.041Z,14.10
2022-09-30T05:48:35.117Z,15.05
2022-09-30T05:52:36.743Z,11.38
2022-09-30T05:56:38.447Z,13.62
2022-09-30T06:00:44.725Z,11.40
2022-09-30T06:04:46.576Z,35.83
2022-09-30T06:08:48.448Z,13.98
2022-09-30T06:12:50.104Z,10.95
2022-09-30T06:16:51.882Z,13.43
2022-09-30T06:20:56.835Z,11.18
2022-09-30T06:24:58.574Z,14.75
2022-09-30T06:29:00.162Z,13.23
2022-09-30T06:33:01.871Z,11.77
2022-09-30T06:37:04.006Z,15.95
2022-09-30T06:41:06.214Z,13.38
2022-09-30T06:45:09.067Z,12.85
2022-09-30T06:49:13.760Z,10.95
2022-09-30T06:53:15.733Z,13.68
2022-09-30T06:57:17.640Z,13.25
2022-09-30T07:01:20.646Z,12.98
2022-09-30T07:05:23.265Z,11.52
2022-09-30T07:09:25.583Z,11.57
2022-09-30T07:13:27.553Z,16.55
2022-09-30T07:17:29.610Z,15.00
2022-09-30T07:21:31.737Z,16.37
2022-09-30T07:25:33.366Z,11.93
2022-09-30T07:29:50.410Z,12.32
2022-09-30T07:33:56.657Z,12.82
2022-09-30T07:37:58.412Z,11.50
2022-09-30T07:42:04.104Z,12.07
2022-09-30T07:46:12.775Z,11.88
2022-09-30T07:50:15.712Z,12.10
2022-09-30T07:54:20.945Z,12.65
2022-09-30T07:58:22.559Z,9.95
2022-09-30T08:02:24.612Z,12.20
2022-09-30T08:06:28.211Z,13.45
2022-09-30T08:10:34.145Z,12.48
2022-09-30T08:14:35.765Z,11.23
2022-09-30T08:18:37.408Z,13.82
2022-09-30T08:22:39.069Z,13.88
2022-09-30T08:26:41.154Z,10.85
2022-09-30T08:30:42.830Z,16.25
2022-09-30T08:34:44.438Z,12.20
2022-09-30T08:38:46.307Z,14.43
2022-09-30T08:43:17.502Z,15.13
2022-09-30T08:47:38.946Z,12.55
2022-09-30T08:51:47.115Z,14.13
2022-09-30T08:55:49.054Z,13.10
2022-09-30T08:59:57.605Z,13.65
2022-09-30T09:04:01.833Z,13.13
2022-09-30T09:08:23.866Z,13.00
2022-09-30T09:12:44.353Z,18.55
2022-09-30T09:17:14.597Z,11.35
2022-09-30T09:21:29.899Z,16.35
2022-09-30T09:25:32.125Z,14.25
2022-09-30T09:29:57.670Z,11.55
2022-09-30T09:34:07.868Z,10.73
2022-09-30T09:38:39.058Z,11.95
2022-09-30T09:42:43.697Z,11.00
2022-09-30T09:46:55.483Z,9.98
2022-09-30T09:51:03.263Z,12.18
2022-09-30T09:55:05.263Z,9.27
2022-09-30T09:59:19.848Z,10.30
2022-09-30T10:03:26.408Z,12.95
2022-09-30T10:07:29.854Z,10.23
2022-09-30T10:11:31.497Z,12.40
2022-09-30T10:15:36.303Z,10.70
2022-09-30T10:19:50.365Z,7.47
2022-09-30T10:23:52.143Z,9.27
2022-09-30T10:27:58.413Z,10.70
2022-09-30T10:32:07.340Z,9.50
2022-09-30T10:36:18.346Z,13.88
2022-09-30T10:40:27.100Z,9.23
2022-09-30T10:44:29.628Z,11.48
2022-09-30T10:48:37.143Z,17.05
2022-09-30T10:52:55.419Z,14.23
2022-09-30T10:57:03.774Z,14.20
2022-09-30T11:01:21.778Z,10.32
2022-09-30T11:05:34.828Z,11.73
2022-09-30T11:09:47.655Z,9.75
2022-09-30T11:13:57.257Z,8.45
2022-09-30T11:18:18.737Z,9.73
2022-09-30T11:22:46.737Z,13.02
2022-09-30T11:30:58.279Z,8.93
2022-09-30T11:35:21.663Z,9.35
2022-09-30T11:39:41.101Z,9.88
2022-09-30T11:44:14.543Z,8.45
2022-09-30T11:48:32.991Z,7.72
2022-09-30T11:53:12.058Z,8.90
2022-09-30T11:57:32.770Z,9.80
2022-09-30T12:01:40.664Z,8.10
2022-09-30T12:05:48.029Z,7.65
2022-09-30T12:09:58.737Z,12.50
2022-09-30T12:14:07.143Z,6.07
2022-09-30T12:18:22.322Z,6.85
2022-09-30T12:22:30.091Z,8.18
2022-09-30T12:26:32.302Z,7.15
2022-09-30T12:30:35.512Z,9.25
2022-09-30T12:35:04.617Z,8.32
2022-09-30T12:39:37.222Z,8.05
2022-09-30T12:43:41.914Z,5.78
2022-09-30T12:47:54.676Z,6.28
2022-09-30T12:52:07.030Z,7.87
2022-09-30T12:56:15.623Z,11.15
2022-09-30T13:00:27.365Z,8.23
2022-09-30T13:04:38.978Z,9.02
2022-09-30T13:08:47.859Z,5.75
2022-09-30T13:13:25.300Z,7.53
2022-09-30T13:17:27.208Z,7.23
2022-09-30T13:21:32.118Z,7.00
2022-09-30T13:25:53.500Z,8.82
2022-09-30T13:29:55.491Z,6.60
2022-09-30T13:34:06.331Z,7.78
2022-09-30T13:38:17.749Z,7.75
2022-09-30T13:42:19.331Z,5.78
2022-09-30T13:46:24.676Z,6.68
2022-09-30T13:50:45.306Z,6.25
2022-09-30T13:54:48.794Z,9.27
2022-09-30T13:59:00.212Z,3.50
2022-09-30T14:03:38.524Z,3.75
2022-09-30T14:12:25.184Z,3.87
2022-09-30T14:16:51.488Z,4.55
2022-09-30T14:21:05.102Z,7.28
2022-09-30T14:25:22.331Z,3.65
2022-09-30T14:29:36.368Z,6.87
2022-09-30T14:33:39.404Z,4.68
2022-09-30T14:37:56.211Z,4.12
2022-09-30T14:42:02.022Z,3.30
2022-09-30T14:46:08.537Z,6.10
2022-09-30T14:50:16.142Z,3.33
2022-09-30T14:54:20.782Z,4.75
2022-09-30T14:58:53.067Z,5.22
2022-09-30T15:02:55.103Z,4.85
2022-09-30T15:06:57.794Z,4.47
2022-09-30T15:10:59.454Z,4.55
2022-09-30T15:15:01.542Z,4.28
2022-09-30T15:19:03.186Z,5.93
2022-09-30T15:23:14.987Z,3.70
2022-09-30T15:27:22.404Z,4.72
2022-09-30T15:31:28.334Z,4.53
2022-09-30T15:35:30.630Z,3.95
2022-09-30T15:40:05.649Z,3.12
2022-09-30T15:44:37.093Z,3.67
2022-09-30T15:48:44.608Z,3.72
2022-09-30T15:52:47.026Z,4.50
2022-09-30T15:56:48.810Z,2.92
2022-09-30T16:00:52.606Z,4.05
2022-09-30T16:04:54.557Z,2.42
2022-09-30T16:09:01.262Z,2.25
2022-09-30T16:13:04.892Z,3.10
2022-09-30T16:17:07.489Z,4.37
2022-09-30T16:21:43.897Z,2.53
2022-09-30T16:25:46.485Z,4.57
2022-09-30T16:29:48.118Z,3.35
2022-09-30T16:33:49.838Z,5.28
2022-09-30T16:37:59.008Z,4.50
2022-09-30T16:42:00.654Z,4.82
2022-09-30T16:46:02.827Z,4.00
2022-09-30T16:50:20.916Z,7.68
2022-09-30T16:54:22.752Z,9.15
2022-09-30T16:58:24.460Z,8.68
2022-09-30T17:02:27.301Z,7.95
2022-09-30T17:06:30.990Z,8.30
2022-09-30T17:10:35.404Z,10.68
2022-09-30T17:14:37.191Z,10.70
2022-09-30T17:18:38.815Z,6.22
2022-09-30T17:22:40.867Z,3.85
2022-09-30T17:26:43.131Z,3.03
2022-09-30T17:30:47.782Z,3.47
2022-09-30T17:34:50.031Z,2.42
2022-09-30T17:38:54.541Z,3.05
2022-09-30T17:43:10.344Z,2.22
2022-09-30T17:47:11.982Z,5.22
2022-09-30T17:51:18.080Z,2.80
2022-09-30T17:55:20.062Z,9.52
2022-09-30T17:59:21.904Z,7.03
2022-09-30T18:03:23.653Z,3.40
2022-09-30T18:07:27.534Z,5.72
2022-09-30T18:11:31.279Z,2.70
2022-09-30T18:15:33.207Z,3.22
2022-09-30T18:19:35.591Z,4.95
2022-09-30T18:23:37.307Z,4.05
2022-09-30T18:27:38.961Z,2.65
2022-09-30T18:31:40.775Z,3.72
2022-09-30T18:35:42.432Z,3.95
2022-09-30T18:39:44.056Z,3.85
2022-09-30T18:43:46.151Z,5.03
2022-09-30T18:47:48.150Z,5.65
2022-09-30T18:51:49.803Z,2.80
2022-09-30T18:55:51.435Z,5.78
2022-09-30T18:59:53.597Z,4.10
2022-09-30T19:03:55.202Z,6.87
2022-09-30T19:07:56.859Z,5.37
2022-09-30T19:11:59.912Z,6.57
2022-09-30T19:16:05.666Z,5.15
2022-09-30T19:20:08.361Z,5.47
2022-09-30T19:24:10.002Z,3.97
2022-09-30T19:28:12.218Z,8.05
2022-09-30T19:32:15.223Z,8.88
2022-09-30T19:36:17.195Z,4.72
2022-09-30T19:40:22.055Z,5.43
2022-09-30T19:44:23.891Z,5.62
2022-09-30T19:48:26.611Z,4.45
2022-09-30T19:52:28.315Z,3.60
2022-09-30T19:56:30.013Z,5.07
2022-09-30T20:00:31.654Z,5.53
2022-09-30T20:04:34.169Z,4.45
2022-09-30T20:08:36.836Z,3.85
2022-09-30T20:12:38.433Z,2.72
2022-09-30T20:16:43.605Z,7.82
2022-09-30T20:20:45.732Z,3.28
2022-09-30T20:24:47.892Z,4.72
2022-09-30T20:28:49.500Z,5.43
2022-09-30T20:32:51.050Z,5.68
2022-09-30T20:36:52.642Z,3.10
2022-09-30T20:40:56.079Z,5.00
2022-09-30T20:45:00.918Z,4.37
2022-09-30T20:49:03.052Z,3.90
2022-09-30T20:53:10.148Z,3.12
2022-09-30T20:57:11.787Z,6.87
2022-09-30T21:01:15.496Z,3.65
2022-09-30T21:05:17.103Z,3.50
2022-09-30T21:09:18.712Z,2.25
2022-09-30T21:13:20.565Z,3.65
2022-09-30T21:17:22.164Z,3.78
2022-09-30T21:21:25.611Z,2.55
2022-09-30T21:25:27.226Z,4.18
2022-09-30T21:29:32.617Z,2.50
2022-09-30T21:33:35.490Z,6.78
2022-09-30T21:37:37.281Z,2.83
2022-09-30T21:41:40.607Z,4.00
2022-09-30T21:45:42.388Z,3.10
2022-09-30T21:49:44.150Z,2.72
2022-09-30T21:53:46.724Z,3.15
2022-09-30T21:57:48.348Z,4.78
2022-09-30T22:01:50.194Z,6.47
2022-09-30T22:05:55.951Z,4.62
2022-09-30T22:09:57.552Z,6.62
2022-09-30T22:13:59.925Z,4.60
2022-09-30T22:18:02.162Z,5.78
2022-09-30T22:22:04.408Z,6.18
2022-09-30T22:26:10.758Z,5.12
2022-09-30T22:30:12.422Z,4.65
2022-09-30T22:34:33.729Z,3.90
2022-09-30T22:38:35.664Z,6.15
2022-09-30T22:42:37.690Z,3.75
2022-09-30T22:46:39.723Z,4.97
2022-09-30T22:50:41.385Z,3.72
2022-09-30T22:54:43.044Z,6.47
2022-09-30T22:58:46.647Z,6.05
2022-09-30T23:02:52.740Z,5.30
2022-09-30T23:06:55.364Z,5.10
2022-09-30T23:10:57.400Z,4.55
2022-09-30T23:14:59.008Z,5.00
2022-09-30T23:19:00.987Z,5.32
2022-09-30T23:23:02.699Z,3.90
2022-09-30T23:27:04.356Z,5.80
2022-09-30T23:31:09.392Z,4.60
2022-09-30T23:35:13.979Z,4.85
2022-09-30T23:39:19.253Z,7.53
2022-09-30T23:43:22.130Z,5.12
2022-09-30T23:47:23.747Z,5.40
2022-09-30T23:51:25.472Z,4.95
2022-09-30T23:55:29.610Z,6.28
2022-09-30T23:59:32.126Z,5.85
